createdAt,value
2023-01-17T00:01:55.179Z,97614.44
2023-01-17T00:04:40.573Z,97606.28
2023-01-17T00:07:29.184Z,97602.16
2023-01-17T00:09:57.762Z,97608.00
2023-01-17T00:12:27.343Z,97597.31
2023-01-17T00:14:58.565Z,97597.06
2023-01-17T00:17:28.717Z,97604.03
2023-01-17T00:20:26.373Z,97594.47
2023-01-17T00:23:08.155Z,97590.69
2023-01-17T00:25:56.688Z,97599.72
2023-01-17T00:28:26.203Z,97581.84
2023-01-17T00:30:54.504Z,97595.25
2023-01-17T00:33:22.447Z,97589.97
2023-01-17T00:35:49.877Z,97582.16
2023-01-17T00:38:18.478Z,97579.13
2023-01-17T00:40:46.830Z,97573.03
2023-01-17T00:43:34.656Z,97565.38
2023-01-17T00:46:21.985Z,97565.75
2023-01-17T00:49:11.120Z,97562.69
2023-01-17T00:51:58.985Z,97562.63
2023-01-17T00:54:44.431Z,97555.34
2023-01-17T00:57:30.148Z,97573.34
2023-01-17T01:00:15.448Z,97572.16
2023-01-17T01:03:02.171Z,97567.47
2023-01-17T01:05:47.341Z,97572.16
2023-01-17T01:08:38.169Z,97571.34
2023-01-17T01:11:25.905Z,97565.84
2023-01-17T01:14:11.243Z,97565.84
2023-01-17T01:16:56.488Z,97567.69
2023-01-17T01:19:43.472Z,97560.63
2023-01-17T01:22:28.701Z,97550.09
2023-01-17T01:25:14.020Z,97552.03
2023-01-17T01:27:59.355Z,97553.59
2023-01-17T01:30:44.582Z,97552.16
2023-01-17T01:33:18.676Z,97550.16
2023-01-17T01:35:51.712Z,97548.47
2023-01-17T01:38:20.559Z,97547.03
2023-01-17T01:40:51.591Z,97537.53
2023-01-17T01:43:21.664Z,97541.22
2023-01-17T01:45:54.263Z,97537.63
2023-01-17T01:48:36.623Z,97537.13
2023-01-17T01:51:10.515Z,97528.81
2023-01-17T01:53:41.289Z,97536.50
2023-01-17T01:56:12.287Z,97535.53
2023-01-17T01:58:42.662Z,97529.66
2023-01-17T02:01:11.110Z,97522.88
2023-01-17T02:03:41.945Z,97522.94
2023-01-17T02:06:21.636Z,97525.66
2023-01-17T02:08:50.111Z,97522.38
2023-01-17T02:11:18.397Z,97521.09
2023-01-17T02:13:46.443Z,97523.31
2023-01-17T02:16:25.699Z,97524.19
2023-01-17T02:19:06.147Z,97516.53
2023-01-17T02:21:40.217Z,97508.66
2023-01-17T02:24:44.690Z,97513.41
2023-01-17T02:27:22.732Z,97515.31
2023-01-17T02:30:21.437Z,97514.47
2023-01-17T02:33:07.538Z,97514.34
2023-01-17T02:35:43.862Z,97519.19
2023-01-17T02:38:20.663Z,97510.63
2023-01-17T02:40:51.010Z,97514.34
2023-01-17T02:43:21.089Z,97516.16
2023-01-17T02:45:49.125Z,97517.50
2023-01-17T02:48:23.652Z,97519.44
2023-01-17T02:51:04.533Z,97511.59
2023-01-17T02:53:43.061Z,97509.50
2023-01-17T02:56:24.148Z,97514.63
2023-01-17T02:59:11.519Z,97518.66
2023-01-17T03:01:59.494Z,97520.31
2023-01-17T03:04:38.846Z,97523.75
2023-01-17T03:07:12.558Z,97524.53
2023-01-17T03:09:43.678Z,97525.63
2023-01-17T03:12:11.675Z,97529.59
2023-01-17T03:14:39.913Z,97524.81
2023-01-17T03:17:08.360Z,97534.38
2023-01-17T03:19:37.731Z,97529.00
2023-01-17T03:22:05.725Z,97523.97
2023-01-17T03:24:33.642Z,97524.19
2023-01-17T03:27:01.561Z,97521.69
2023-01-17T03:29:29.536Z,97522.72
2023-01-17T03:31:58.212Z,97521.09
2023-01-17T03:34:26.125Z,97523.19
2023-01-17T03:36:55.891Z,97521.03
2023-01-17T03:39:24.013Z,97517.47
2023-01-17T03:41:52.047Z,97522.25
2023-01-17T03:44:20.056Z,97515.41
2023-01-17T03:46:47.944Z,97511.22
2023-01-17T03:49:16.652Z,97514.69
2023-01-17T03:51:44.642Z,97517.81
2023-01-17T03:54:14.042Z,97522.22
2023-01-17T03:56:42.011Z,97518.41
2023-01-17T03:59:12.234Z,97513.19
2023-01-17T04:01:41.239Z,97514.44
2023-01-17T04:04:09.293Z,97531.00
2023-01-17T04:06:37.201Z,97525.03
2023-01-17T04:09:05.157Z,97536.41
2023-01-17T04:11:34.553Z,97535.72
2023-01-17T04:14:02.528Z,97529.69
2023-01-17T04:16:32.109Z,97525.41
2023-01-17T04:19:00.133Z,97534.78
2023-01-17T04:21:28.116Z,97532.06
2023-01-17T04:23:56.030Z,97539.56
2023-01-17T04:26:23.972Z,97536.75
2023-01-17T04:28:53.296Z,97542.66
2023-01-17T04:31:21.361Z,97535.38
2023-01-17T04:33:49.384Z,97539.63
2023-01-17T04:36:18.007Z,97535.63
2023-01-17T04:38:45.913Z,97554.47
2023-01-17T04:41:13.866Z,97547.63
2023-01-17T04:43:41.805Z,97548.94
2023-01-17T04:46:11.335Z,97543.34
2023-01-17T04:48:39.376Z,97550.31
2023-01-17T04:51:07.425Z,97548.72
2023-01-17T04:53:35.366Z,97550.66
2023-01-17T04:56:03.250Z,97555.56
2023-01-17T04:58:33.269Z,97569.78
2023-01-17T05:01:04.918Z,97576.56
2023-01-17T05:03:35.364Z,97574.47
2023-01-17T05:06:03.487Z,97570.56
2023-01-17T05:08:31.438Z,97583.59
2023-01-17T05:10:59.344Z,97579.50
2023-01-17T05:13:27.511Z,97576.19
2023-01-17T05:15:57.085Z,97582.47
2023-01-17T05:18:25.333Z,97584.56
2023-01-17T05:20:54.691Z,97584.56
2023-01-17T05:23:22.689Z,97588.81
2023-01-17T05:25:50.579Z,97586.44
2023-01-17T05:28:18.569Z,97601.31
2023-01-17T05:30:49.289Z,97608.38
2023-01-17T05:33:17.312Z,97606.06
2023-01-17T05:35:45.277Z,97609.88
2023-01-17T05:38:14.539Z,97613.81
2023-01-17T05:40:42.753Z,97614.63
2023-01-17T05:43:10.789Z,97617.03
2023-01-17T05:45:39.447Z,97618.84
2023-01-17T05:48:07.701Z,97628.13
2023-01-17T05:50:37.114Z,97631.78
2023-01-17T05:53:07.067Z,97635.16
2023-01-17T05:55:37.286Z,97635.72
2023-01-17T05:58:06.568Z,97641.22
2023-01-17T06:00:34.587Z,97643.66
2023-01-17T06:03:02.798Z,97653.63
2023-01-17T06:05:32.510Z,97658.69
2023-01-17T06:08:00.685Z,97668.44
2023-01-17T06:10:29.408Z,97656.69
2023-01-17T06:13:10.809Z,97668.09
2023-01-17T06:15:39.416Z,97675.91
2023-01-17T06:18:08.103Z,97671.03
2023-01-17T06:20:37.969Z,97679.91
2023-01-17T06:23:30.838Z,97676.34
2023-01-17T06:25:58.753Z,97675.16
2023-01-17T06:28:28.062Z,97673.69
2023-01-17T06:31:06.834Z,97683.13
2023-01-17T06:33:34.930Z,97685.78
2023-01-17T06:36:05.116Z,97672.03
2023-01-17T06:38:33.275Z,97683.13
2023-01-17T06:41:05.315Z,97674.13
2023-01-17T06:43:37.573Z,97686.31
2023-01-17T06:46:05.551Z,97694.94
2023-01-17T06:48:33.522Z,97709.00
2023-01-17T06:51:01.544Z,97702.44
2023-01-17T06:53:29.500Z,97705.44
2023-01-17T06:55:58.083Z,97709.16
2023-01-17T06:58:26.064Z,97707.44
2023-01-17T07:00:55.727Z,97714.63
2023-01-17T07:03:25.742Z,97712.13
2023-01-17T07:05:54.214Z,97723.66
2023-01-17T07:08:22.308Z,97717.59
2023-01-17T07:10:50.304Z,97732.06
2023-01-17T07:13:18.291Z,97734.50
2023-01-17T07:15:46.273Z,97742.53
2023-01-17T07:18:20.390Z,97753.25
2023-01-17T07:20:49.112Z,97751.06
2023-01-17T07:23:17.088Z,97755.00
2023-01-17T07:25:45.017Z,97757.63
2023-01-17T07:28:12.909Z,97762.38
2023-01-17T07:30:40.900Z,97770.09
2023-01-17T07:33:19.359Z,97767.22
2023-01-17T07:35:47.516Z,97771.63
2023-01-17T07:38:22.537Z,97765.22
2023-01-17T07:40:53.179Z,97773.97
2023-01-17T07:43:23.404Z,97769.44
2023-01-17T07:45:51.974Z,97770.09
2023-01-17T07:48:24.097Z,97777.03
2023-01-17T07:51:00.397Z,97784.75
2023-01-17T07:53:29.927Z,97774.69
2023-01-17T07:56:02.512Z,97790.31
2023-01-17T07:58:30.591Z,97779.47
2023-01-17T08:01:04.036Z,97790.31
2023-01-17T08:03:37.849Z,97789.66
2023-01-17T08:06:09.595Z,97776.06
2023-01-17T08:08:40.192Z,97796.19
2023-01-17T08:11:12.841Z,97801.50
2023-01-17T08:13:41.892Z,97786.41
2023-01-17T08:16:11.228Z,97790.81
2023-01-17T08:18:41.312Z,97788.19
2023-01-17T08:21:16.733Z,97783.44
2023-01-17T08:23:49.413Z,97798.00
2023-01-17T08:26:22.543Z,97792.81
2023-01-17T08:28:51.018Z,97793.34
2023-01-17T08:31:19.851Z,97807.84
2023-01-17T08:33:49.583Z,97818.31
2023-01-17T08:36:19.125Z,97808.59
2023-01-17T08:38:47.130Z,97828.28
2023-01-17T08:41:15.106Z,97820.03
2023-01-17T08:43:43.306Z,97819.09
2023-01-17T08:46:11.484Z,97821.25
2023-01-17T08:48:41.548Z,97834.81
2023-01-17T08:51:12.355Z,97830.16
2023-01-17T08:53:40.620Z,97848.91
2023-01-17T08:56:08.948Z,97849.56
2023-01-17T08:58:36.870Z,97832.72
2023-01-17T09:01:08.780Z,97842.72
2023-01-17T09:03:38.906Z,97831.94
2023-01-17T09:06:13.392Z,97840.97
2023-01-17T09:08:46.754Z,97844.28
2023-01-17T09:11:19.769Z,97848.09
2023-01-17T09:13:50.230Z,97848.53
2023-01-17T09:16:21.111Z,97857.78
2023-01-17T09:18:49.063Z,97857.41
2023-01-17T09:21:19.028Z,97861.88
2023-01-17T09:23:47.035Z,97874.31
2023-01-17T09:26:19.669Z,97864.69
2023-01-17T09:28:47.764Z,97871.41
2023-01-17T09:31:17.642Z,97877.34
2023-01-17T09:33:45.860Z,97875.19
2023-01-17T09:36:13.932Z,97898.19
2023-01-17T09:38:43.389Z,97876.56
2023-01-17T09:41:22.803Z,97915.47
2023-01-17T09:43:55.560Z,97889.56
2023-01-17T09:46:27.705Z,97894.47
2023-01-17T09:49:07.358Z,97902.69
2023-01-17T09:51:35.431Z,97908.09
2023-01-17T09:54:05.350Z,97914.59
2023-01-17T09:56:38.212Z,97928.06
2023-01-17T09:59:19.543Z,97935.44
2023-01-17T10:01:58.529Z,97933.06
2023-01-17T10:04:51.324Z,97928.72
2023-01-17T10:07:32.371Z,97929.88
2023-01-17T10:10:22.679Z,97935.31
2023-01-17T10:12:57.257Z,97945.94
2023-01-17T10:15:39.007Z,97950.16
2023-01-17T10:18:30.478Z,97946.63
2023-01-17T10:21:05.656Z,97959.50
2023-01-17T10:23:47.595Z,97963.03
2023-01-17T10:26:19.051Z,97963.31
2023-01-17T10:28:51.566Z,97988.03
2023-01-17T10:31:23.741Z,97978.31
2023-01-17T10:33:53.583Z,97983.53
2023-01-17T10:36:23.628Z,97987.41
2023-01-17T10:38:54.531Z,97987.56
2023-01-17T10:41:30.136Z,97991.81
2023-01-17T10:44:08.791Z,97991.56
2023-01-17T10:46:42.384Z,97997.06
2023-01-17T10:49:16.701Z,98007.22
2023-01-17T10:52:01.045Z,98000.94
2023-01-17T10:54:55.106Z,98002.28
2023-01-17T10:57:31.421Z,98007.50
2023-01-17T11:00:06.243Z,98008.06
2023-01-17T11:02:41.905Z,98010.25
2023-01-17T11:05:21.451Z,98014.13
2023-01-17T11:07:58.751Z,98019.31
2023-01-17T11:10:37.919Z,98024.38
2023-01-17T11:13:18.490Z,98034.13
2023-01-17T11:15:49.448Z,98027.72
2023-01-17T11:18:19.252Z,98021.69
2023-01-17T11:20:47.984Z,98036.19
2023-01-17T11:23:18.465Z,98030.72
2023-01-17T11:25:50.581Z,98037.72
2023-01-17T11:28:26.246Z,98022.13
2023-01-17T11:30:57.042Z,98030.88
2023-01-17T11:33:45.945Z,98041.44
2023-01-17T11:36:19.285Z,98044.59
2023-01-17T11:38:59.042Z,98048.66
2023-01-17T11:41:31.819Z,98054.00
2023-01-17T11:44:02.643Z,98050.16
2023-01-17T11:46:31.640Z,98061.59
2023-01-17T11:49:01.528Z,98060.25
2023-01-17T11:51:32.588Z,98080.47
2023-01-17T11:54:19.366Z,98092.44
2023-01-17T11:56:47.271Z,98078.69
2023-01-17T11:59:25.806Z,98083.69
2023-01-17T12:02:18.930Z,98086.72
2023-01-17T12:04:50.134Z,98078.81
2023-01-17T12:07:28.337Z,98088.84
2023-01-17T12:10:06.235Z,98078.31
2023-01-17T12:13:03.677Z,98085.03
2023-01-17T12:15:50.901Z,98082.59
2023-01-17T12:18:49.669Z,98087.88
2023-01-17T12:21:25.779Z,98096.47
2023-01-17T12:24:15.695Z,98095.34
2023-01-17T12:26:51.018Z,98095.59
2023-01-17T12:29:35.664Z,98089.91
2023-01-17T12:32:18.578Z,98093.16
2023-01-17T12:34:51.768Z,98103.97
2023-01-17T12:37:25.280Z,98109.06
2023-01-17T12:39:58.908Z,98118.50
2023-01-17T12:42:32.065Z,98108.09
2023-01-17T12:45:06.321Z,98114.25
2023-01-17T12:47:43.184Z,98123.16
2023-01-17T12:50:22.323Z,98124.78
2023-01-17T12:52:59.555Z,98132.59
2023-01-17T12:55:35.689Z,98130.81
2023-01-17T12:58:08.320Z,98120.13
2023-01-17T13:00:40.113Z,98130.81
2023-01-17T13:03:17.619Z,98124.66
2023-01-17T13:05:48.550Z,98132.06
2023-01-17T13:08:25.294Z,98129.59
2023-01-17T13:10:57.266Z,98136.72
2023-01-17T13:13:26.955Z,98136.59
2023-01-17T13:15:58.768Z,98136.84
2023-01-17T13:18:33.076Z,98153.44
2023-01-17T13:21:18.711Z,98151.91
2023-01-17T13:24:05.937Z,98154.09
2023-01-17T13:26:49.811Z,98150.81
2023-01-17T13:29:26.496Z,98161.34
2023-01-17T13:32:07.285Z,98165.63
2023-01-17T13:35:01.761Z,98166.03
2023-01-17T13:38:05.360Z,98168.75
2023-01-17T13:40:37.419Z,98192.22
2023-01-17T13:43:13.122Z,98182.06
2023-01-17T13:45:42.080Z,98191.78
2023-01-17T13:48:34.484Z,98193.38
2023-01-17T13:51:05.458Z,98195.44
2023-01-17T13:54:00.256Z,98199.28
2023-01-17T13:56:34.043Z,98205.88
2023-01-17T13:59:26.913Z,98202.75
2023-01-17T14:01:55.721Z,98200.53
2023-01-17T14:04:25.851Z,98200.97
2023-01-17T14:06:59.419Z,98204.25
2023-01-17T14:09:33.379Z,98213.03
2023-01-17T14:12:07.460Z,98214.94
2023-01-17T14:14:55.609Z,98220.81
2023-01-17T14:17:56.772Z,98228.34
2023-01-17T14:21:00.239Z,98228.47
2023-01-17T14:23:47.704Z,98235.63
2023-01-17T14:26:36.595Z,98253.69
2023-01-17T14:29:41.797Z,98251.00
2023-01-17T14:32:13.192Z,98252.56
2023-01-17T14:34:41.747Z,98256.66
2023-01-17T14:37:19.494Z,98259.38
2023-01-17T14:39:51.485Z,98269.13
2023-01-17T14:42:23.168Z,98274.22
2023-01-17T14:44:53.913Z,98275.91
2023-01-17T14:47:22.395Z,98280.94
2023-01-17T14:49:50.410Z,98282.16
2023-01-17T14:52:19.372Z,98285.38
2023-01-17T14:54:53.278Z,98293.28
2023-01-17T14:57:27.846Z,98279.31
2023-01-17T15:00:18.865Z,98279.16
2023-01-17T15:02:48.993Z,98284.22
2023-01-17T15:05:20.162Z,98283.44
2023-01-17T15:07:52.913Z,98289.56
2023-01-17T15:10:25.718Z,98298.19
2023-01-17T15:12:54.064Z,98293.25
2023-01-17T15:15:32.118Z,98306.09
2023-01-17T15:18:26.892Z,98305.97
2023-01-17T15:20:59.789Z,98314.56
2023-01-17T15:23:31.716Z,98311.97
2023-01-17T15:26:02.634Z,98313.63
2023-01-17T15:28:32.024Z,98304.13
2023-01-17T15:31:08.756Z,98308.72
2023-01-17T15:33:39.095Z,98308.91
2023-01-17T15:36:09.733Z,98314.94
2023-01-17T15:38:41.460Z,98316.22
2023-01-17T15:41:14.542Z,98312.72
2023-01-17T15:43:44.081Z,98322.03
2023-01-17T15:46:32.982Z,98318.94
2023-01-17T15:49:09.502Z,98315.97
2023-01-17T15:51:41.514Z,98319.19
2023-01-17T15:54:34.491Z,98317.34
2023-01-17T15:57:06.712Z,98330.00
2023-01-17T15:59:45.842Z,98329.63
2023-01-17T16:02:38.854Z,98331.66
2023-01-17T16:05:41.656Z,98333.31
2023-01-17T16:08:33.392Z,98338.50
2023-01-17T16:11:03.324Z,98344.16
2023-01-17T16:13:34.943Z,98337.31
2023-01-17T16:16:19.191Z,98334.84
2023-01-17T16:18:49.008Z,98335.16
2023-01-17T16:21:20.915Z,98346.22
2023-01-17T16:23:49.453Z,98346.53
2023-01-17T16:26:18.178Z,98349.16
2023-01-17T16:28:47.862Z,98351.56
2023-01-17T16:31:16.500Z,98347.91
2023-01-17T16:33:46.149Z,98349.88
2023-01-17T16:36:16.441Z,98346.13
2023-01-17T16:38:45.919Z,98355.22
2023-01-17T16:41:14.023Z,98357.38
2023-01-17T16:43:42.194Z,98362.69
2023-01-17T16:46:13.017Z,98361.72
2023-01-17T16:48:41.171Z,98362.34
2023-01-17T16:51:09.634Z,98366.72
2023-01-17T16:53:38.199Z,98367.19
2023-01-17T16:56:12.604Z,98368.84
2023-01-17T16:58:41.512Z,98367.69
2023-01-17T17:01:15.339Z,98374.84
2023-01-17T17:03:43.907Z,98364.63
2023-01-17T17:06:13.208Z,98368.19
2023-01-17T17:08:44.163Z,98368.41
2023-01-17T17:11:14.614Z,98364.50
2023-01-17T17:13:44.611Z,98364.50
2023-01-17T17:16:16.540Z,98376.66
2023-01-17T17:18:46.089Z,98382.00
2023-01-17T17:21:14.587Z,98387.53
2023-01-17T17:23:42.821Z,98385.19
2023-01-17T17:26:11.115Z,98388.47
2023-01-17T17:28:39.325Z,98382.81
2023-01-17T17:31:10.454Z,98381.38
2023-01-17T17:33:40.137Z,98380.56
2023-01-17T17:36:11.055Z,98390.25
2023-01-17T17:38:50.900Z,98398.72
2023-01-17T17:41:21.639Z,98392.09
2023-01-17T17:43:51.098Z,98392.59
2023-01-17T17:46:20.619Z,98402.84
2023-01-17T17:48:50.380Z,98398.56
2023-01-17T17:51:27.430Z,98401.41
2023-01-17T17:53:57.187Z,98399.16
2023-01-17T17:56:25.351Z,98401.34
2023-01-17T17:58:53.652Z,98412.53
2023-01-17T18:01:24.073Z,98415.25
2023-01-17T18:03:57.639Z,98409.00
2023-01-17T18:06:25.586Z,98422.06
2023-01-17T18:08:53.949Z,98420.09
2023-01-17T18:11:24.346Z,98425.06
2023-01-17T18:13:53.055Z,98413.97
2023-01-17T18:16:24.067Z,98415.97
2023-01-17T18:18:54.625Z,98416.50
2023-01-17T18:21:25.149Z,98415.53
2023-01-17T18:23:55.294Z,98421.38
2023-01-17T18:26:25.357Z,98420.78
2023-01-17T18:28:54.966Z,98419.75
2023-01-17T18:31:25.039Z,98424.75
2023-01-17T18:33:55.056Z,98423.63
2023-01-17T18:36:24.382Z,98423.09
2023-01-17T18:38:53.130Z,98427.66
2023-01-17T18:41:23.391Z,98430.56
2023-01-17T18:43:51.379Z,98438.81
2023-01-17T18:46:20.816Z,98434.22
2023-01-17T18:48:48.839Z,98431.41
2023-01-17T18:51:20.522Z,98434.34
2023-01-17T18:53:48.548Z,98417.78
2023-01-17T18:56:19.882Z,98429.94
2023-01-17T18:58:50.132Z,98429.19
2023-01-17T19:01:20.985Z,98443.06
2023-01-17T19:03:50.940Z,98450.97
2023-01-17T19:06:22.631Z,98448.88
2023-01-17T19:08:51.697Z,98448.25
2023-01-17T19:11:20.595Z,98443.75
2023-01-17T19:13:50.175Z,98446.00
2023-01-17T19:16:19.896Z,98452.91
2023-01-17T19:18:48.253Z,98457.50
2023-01-17T19:21:18.850Z,98455.72
2023-01-17T19:23:48.224Z,98464.25
2023-01-17T19:26:17.595Z,98463.03
2023-01-17T19:28:47.251Z,98455.81
2023-01-17T19:31:16.917Z,98459.84
2023-01-17T19:33:46.804Z,98457.66
2023-01-17T19:36:17.042Z,98466.78
2023-01-17T19:38:55.309Z,98469.88
2023-01-17T19:41:32.503Z,98464.09
2023-01-17T19:44:02.001Z,98467.59
2023-01-17T19:46:30.175Z,98477.00
2023-01-17T19:48:59.481Z,98471.63
2023-01-17T19:51:28.121Z,98478.13
2023-01-17T19:53:56.756Z,98474.94
2023-01-17T19:56:26.829Z,98473.38
2023-01-17T19:59:00.592Z,98476.81
2023-01-17T20:01:30.538Z,98474.31
2023-01-17T20:03:59.367Z,98466.44
2023-01-17T20:06:29.735Z,98474.09
2023-01-17T20:08:58.092Z,98475.13
2023-01-17T20:11:27.141Z,98479.56
2023-01-17T20:13:58.450Z,98481.50
2023-01-17T20:16:28.213Z,98476.88
2023-01-17T20:18:56.350Z,98471.53
2023-01-17T20:21:26.128Z,98476.81
2023-01-17T20:23:55.553Z,98477.31
2023-01-17T20:26:25.396Z,98472.34
2023-01-17T20:28:54.549Z,98470.28
2023-01-17T20:31:26.551Z,98474.00
2023-01-17T20:33:56.119Z,98479.25
2023-01-17T20:36:25.686Z,98477.50
2023-01-17T20:38:54.422Z,98484.31
2023-01-17T20:41:24.334Z,98474.72
2023-01-17T20:43:54.293Z,98475.28
2023-01-17T20:46:25.791Z,98480.72
2023-01-17T20:48:55.385Z,98497.97
2023-01-17T20:51:24.964Z,98499.19
2023-01-17T20:53:55.850Z,98499.03
2023-01-17T20:56:25.788Z,98504.31
2023-01-17T20:58:54.441Z,98517.69
2023-01-17T21:01:24.388Z,98516.44
2023-01-17T21:03:53.957Z,98526.66
2023-01-17T21:06:23.466Z,98535.91
2023-01-17T21:08:52.096Z,98541.88
2023-01-17T21:11:21.853Z,98553.44
2023-01-17T21:13:49.811Z,98557.53
2023-01-17T21:16:20.256Z,98556.25
2023-01-17T21:18:50.915Z,98566.06
2023-01-17T21:21:21.858Z,98574.00
2023-01-17T21:23:50.960Z,98571.72
2023-01-17T21:26:20.463Z,98571.53
2023-01-17T21:28:50.064Z,98575.72
2023-01-17T21:31:22.990Z,98579.91
2023-01-17T21:33:54.199Z,98580.75
2023-01-17T21:36:24.119Z,98593.03
2023-01-17T21:38:53.208Z,98592.19
2023-01-17T21:41:22.764Z,98597.47
2023-01-17T21:43:55.258Z,98603.09
2023-01-17T21:46:23.716Z,98610.19
2023-01-17T21:48:53.305Z,98610.09
2023-01-17T21:51:21.758Z,98616.09
2023-01-17T21:53:49.774Z,98608.34
2023-01-17T21:56:35.132Z,98611.22
2023-01-17T21:59:03.033Z,98608.44
2023-01-17T22:01:34.010Z,98610.38
2023-01-17T22:04:05.093Z,98614.16
2023-01-17T22:06:35.224Z,98613.34
2023-01-17T22:09:04.480Z,98616.53
2023-01-17T22:11:32.723Z,98618.47
2023-01-17T22:14:02.539Z,98622.44
2023-01-17T22:16:30.542Z,98612.53
2023-01-17T22:18:59.021Z,98613.94
2023-01-17T22:21:29.672Z,98612.84
2023-01-17T22:23:59.992Z,98616.00
2023-01-17T22:26:30.002Z,98612.88
2023-01-17T22:29:02.386Z,98610.97
2023-01-17T22:31:30.882Z,98619.31
2023-01-17T22:34:00.887Z,98617.69
2023-01-17T22:36:32.701Z,98620.25
2023-01-17T22:39:01.363Z,98621.63
2023-01-17T22:41:31.205Z,98623.75
2023-01-17T22:44:02.052Z,98612.94
2023-01-17T22:46:32.216Z,98613.56
2023-01-17T22:49:01.417Z,98610.06
2023-01-17T22:51:30.853Z,98614.72
2023-01-17T22:54:00.796Z,98617.56
2023-01-17T22:56:30.621Z,98613.19
2023-01-17T22:59:00.549Z,98613.56
2023-01-17T23:01:29.968Z,98613.75
2023-01-17T23:03:59.347Z,98607.81
2023-01-17T23:06:28.777Z,98617.03
2023-01-17T23:08:59.971Z,98606.59
2023-01-17T23:11:42.538Z,98601.75
2023-01-17T23:14:14.515Z,98603.19
2023-01-17T23:17:01.861Z,98603.41
2023-01-17T23:19:33.577Z,98599.03
2023-01-17T23:22:19.035Z,98598.94
2023-01-17T23:24:50.922Z,98594.44
2023-01-17T23:27:39.073Z,98594.28
2023-01-17T23:30:10.677Z,98590.56
2023-01-17T23:32:39.009Z,98587.25
2023-01-17T23:35:07.731Z,98584.13
2023-01-17T23:37:53.062Z,98578.97
2023-01-17T23:40:22.373Z,98580.63
2023-01-17T23:43:07.781Z,98567.16
2023-01-17T23:45:36.718Z,98561.94
2023-01-17T23:48:09.272Z,98559.72
2023-01-17T23:50:37.918Z,98557.88
2023-01-17T23:53:07.874Z,98560.53
2023-01-17T23:55:39.090Z,98555.09
2023-01-17T23:58:08.663Z,98551.31
